sensor_id;sensor_type;location;lat;lon;timestamp;temperature;humidity
20070;DHT22;10195;50.868;4.382;2023-10-31T00:01:51;11.90;99.90
20070;DHT22;10195;50.868;4.382;2023-10-31T00:04:16;11.90;99.90
20070;DHT22;10195;50.868;4.382;2023-10-31T00:06:42;12.00;99.90
20070;DHT22;10195;50.868;4.382;2023-10-31T00:09:08;11.90;99.90
20070;DHT22;10195;50.868;4.382;2023-10-31T00:11:36;11.80;99.90
20070;DHT22;10195;50.868;4.382;2023-10-31T00:14:02;11.90;99.90
20070;DHT22;10195;50.868;4.382;2023-10-31T00:16:28;11.90;99.90
20070;DHT22;10195;50.868;4.382;2023-10-31T00:18:53;11.90;99.90
20070;DHT22;10195;50.868;4.382;2023-10-31T00:21:19;11.90;99.90
20070;DHT22;10195;50.868;4.382;2023-10-31T00:23:46;11.90;99.90
20070;DHT22;10195;50.868;4.382;2023-10-31T00:26:12;11.90;99.90
20070;DHT22;10195;50.868;4.382;2023-10-31T00:28:37;11.80;99.90
20070;DHT22;10195;50.868;4.382;2023-10-31T00:31:03;11.90;99.90
20070;DHT22;10195;50.868;4.382;2023-10-31T00:33:30;11.90;99.90
20070;DHT22;10195;50.868;4.382;2023-10-31T00:35:56;11.80;99.90
20070;DHT22;10195;50.868;4.382;2023-10-31T00:38:22;11.80;99.90
20070;DHT22;10195;50.868;4.382;2023-10-31T00:40:47;11.80;99.90
20070;DHT22;10195;50.868;4.382;2023-10-31T00:43:13;11.80;99.90
20070;DHT22;10195;50.868;4.382;2023-10-31T00:45:39;11.80;99.90
20070;DHT22;10195;50.868;4.382;2023-10-31T00:48:07;11.80;99.90
20070;DHT22;10195;50.868;4.382;2023-10-31T00:50:33;11.90;99.90
20070;DHT22;10195;50.868;4.382;2023-10-31T00:52:59;11.80;99.90
20070;DHT22;10195;50.868;4.382;2023-10-31T00:55:24;11.70;99.90
20070;DHT22;10195;50.868;4.382;2023-10-31T00:57:50;11.80;99.90
20070;DHT22;10195;50.868;4.382;2023-10-31T01:00:16;11.80;99.90
20070;DHT22;10195;50.868;4.382;2023-10-31T01:02:42;11.80;99.90
20070;DHT22;10195;50.868;4.382;2023-10-31T01:05:08;11.80;99.90
20070;DHT22;10195;50.868;4.382;2023-10-31T01:07:34;11.70;99.90
20070;DHT22;10195;50.868;4.382;2023-10-31T01:10:01;11.70;99.90
20070;DHT22;10195;50.868;4.382;2023-10-31T01:12:26;11.70;99.90
20070;DHT22;10195;50.868;4.382;2023-10-31T01:14:54;11.60;99.90
20070;DHT22;10195;50.868;4.382;2023-10-31T01:17:22;11.60;99.90
20070;DHT22;10195;50.868;4.382;2023-10-31T01:19:48;11.60;99.90
20070;DHT22;10195;50.868;4.382;2023-10-31T01:22:14;11.60;99.90
20070;DHT22;10195;50.868;4.382;2023-10-31T01:24:40;11.70;99.90
20070;DHT22;10195;50.868;4.382;2023-10-31T01:27:08;11.70;99.90
20070;DHT22;10195;50.868;4.382;2023-10-31T01:29:33;11.70;99.90
20070;DHT22;10195;50.868;4.382;2023-10-31T01:31:59;11.60;99.90
20070;DHT22;10195;50.868;4.382;2023-10-31T01:34:25;11.60;99.90
20070;DHT22;10195;50.868;4.382;2023-10-31T01:36:50;11.60;99.90
20070;DHT22;10195;50.868;4.382;2023-10-31T01:39:16;11.50;99.90
20070;DHT22;10195;50.868;4.382;2023-10-31T01:41:42;11.50;99.90
20070;DHT22;10195;50.868;4.382;2023-10-31T01:44:09;11.50;99.90
20070;DHT22;10195;50.868;4.382;2023-10-31T01:46:35;11.40;99.90
20070;DHT22;10195;50.868;4.382;2023-10-31T01:49:00;11.40;99.90
20070;DHT22;10195;50.868;4.382;2023-10-31T01:51:28;11.40;99.90
20070;DHT22;10195;50.868;4.382;2023-10-31T01:53:57;11.40;99.90
20070;DHT22;10195;50.868;4.382;2023-10-31T01:56:23;11.40;99.90
20070;DHT22;10195;50.868;4.382;2023-10-31T01:58:53;11.40;99.90
20070;DHT22;10195;50.868;4.382;2023-10-31T02:01:19;11.50;99.90
20070;DHT22;10195;50.868;4.382;2023-10-31T02:03:45;11.40;99.90
20070;DHT22;10195;50.868;4.382;2023-10-31T02:06:11;11.50;99.90
20070;DHT22;10195;50.868;4.382;2023-10-31T02:08:37;11.60;99.90
20070;DHT22;10195;50.868;4.382;2023-10-31T02:11:02;11.60;99.90
20070;DHT22;10195;50.868;4.382;2023-10-31T02:13:29;11.60;99.90
20070;DHT22;10195;50.868;4.382;2023-10-31T02:15:55;11.70;99.90
20070;DHT22;10195;50.868;4.382;2023-10-31T02:18:21;11.70;99.90
20070;DHT22;10195;50.868;4.382;2023-10-31T02:20:47;11.70;99.90
20070;DHT22;10195;50.868;4.382;2023-10-31T02:23:15;11.60;99.90
20070;DHT22;10195;50.868;4.382;2023-10-31T02:25:41;11.60;99.90
20070;DHT22;10195;50.868;4.382;2023-10-31T02:28:06;11.60;99.90
20070;DHT22;10195;50.868;4.382;2023-10-31T02:30:34;11.50;99.90
20070;DHT22;10195;50.868;4.382;2023-10-31T02:33:01;11.50;99.90
20070;DHT22;10195;50.868;4.382;2023-10-31T02:35:27;11.50;99.90
20070;DHT22;10195;50.868;4.382;2023-10-31T02:37:52;11.50;99.90
20070;DHT22;10195;50.868;4.382;2023-10-31T02:40:18;11.50;99.90
20070;DHT22;10195;50.868;4.382;2023-10-31T02:42:44;11.50;99.90
20070;DHT22;10195;50.868;4.382;2023-10-31T02:45:10;11.50;99.90
20070;DHT22;10195;50.868;4.382;2023-10-31T02:47:36;11.50;99.90
20070;DHT22;10195;50.868;4.382;2023-10-31T02:50:01;11.40;99.90
20070;DHT22;10195;50.868;4.382;2023-10-31T02:52:30;11.40;99.90
20070;DHT22;10195;50.868;4.382;2023-10-31T02:54:56;11.40;99.90
20070;DHT22;10195;50.868;4.382;2023-10-31T02:57:24;11.40;99.90
20070;DHT22;10195;50.868;4.382;2023-10-31T02:59:49;11.40;99.90
20070;DHT22;10195;50.868;4.382;2023-10-31T03:02:15;11.30;99.90
20070;DHT22;10195;50.868;4.382;2023-10-31T03:04:41;11.30;99.90
20070;DHT22;10195;50.868;4.382;2023-10-31T03:07:06;11.20;99.90
20070;DHT22;10195;50.868;4.382;2023-10-31T03:09:32;11.30;99.90
20070;DHT22;10195;50.868;4.382;2023-10-31T03:11:58;11.30;99.90
20070;DHT22;10195;50.868;4.382;2023-10-31T03:14:24;11.40;99.90
20070;DHT22;10195;50.868;4.382;2023-10-31T03:16:50;11.50;99.90
20070;DHT22;10195;50.868;4.382;2023-10-31T03:19:16;11.50;99.90
20070;DHT22;10195;50.868;4.382;2023-10-31T03:21:41;11.40;99.90
20070;DHT22;10195;50.868;4.382;2023-10-31T03:24:07;11.40;99.90
20070;DHT22;10195;50.868;4.382;2023-10-31T03:26:33;11.40;99.90
20070;DHT22;10195;50.868;4.382;2023-10-31T03:28:58;11.40;99.90
20070;DHT22;10195;50.868;4.382;2023-10-31T03:31:24;11.40;99.90
20070;DHT22;10195;50.868;4.382;2023-10-31T03:33:50;11.40;99.90
20070;DHT22;10195;50.868;4.382;2023-10-31T03:36:17;11.30;99.90
20070;DHT22;10195;50.868;4.382;2023-10-31T03:38:45;11.20;99.90
20070;DHT22;10195;50.868;4.382;2023-10-31T03:41:11;11.20;99.90
20070;DHT22;10195;50.868;4.382;2023-10-31T03:43:36;11.00;99.90
20070;DHT22;10195;50.868;4.382;2023-10-31T03:46:04;11.00;99.90
20070;DHT22;10195;50.868;4.382;2023-10-31T03:48:29;11.00;99.90
20070;DHT22;10195;50.868;4.382;2023-10-31T03:50:55;11.00;99.90
20070;DHT22;10195;50.868;4.382;2023-10-31T03:53:21;11.10;99.90
20070;DHT22;10195;50.868;4.382;2023-10-31T03:55:47;11.10;99.90
20070;DHT22;10195;50.868;4.382;2023-10-31T03:58:12;11.10;99.90
20070;DHT22;10195;50.868;4.382;2023-10-31T04:00:41;11.10;99.90
20070;DHT22;10195;50.868;4.382;2023-10-31T04:03:07;11.10;99.90
20070;DHT22;10195;50.868;4.382;2023-10-31T04:05:33;11.00;99.90
20070;DHT22;10195;50.868;4.382;2023-10-31T04:07:59;10.90;99.90
20070;DHT22;10195;50.868;4.382;2023-10-31T04:10:25;11.00;99.90
20070;DHT22;10195;50.868;4.382;2023-10-31T04:12:50;11.10;99.90
20070;DHT22;10195;50.868;4.382;2023-10-31T04:15:19;11.00;99.90
20070;DHT22;10195;50.868;4.382;2023-10-31T04:17:44;11.00;99.90
20070;DHT22;10195;50.868;4.382;2023-10-31T04:20:10;10.90;99.90
20070;DHT22;10195;50.868;4.382;2023-10-31T04:22:36;10.80;99.90
20070;DHT22;10195;50.868;4.382;2023-10-31T04:25:02;10.80;99.90
20070;DHT22;10195;50.868;4.382;2023-10-31T04:27:28;10.70;99.90
20070;DHT22;10195;50.868;4.382;2023-10-31T04:29:53;10.60;99.90
20070;DHT22;10195;50.868;4.382;2023-10-31T04:32:19;10.60;99.90
20070;DHT22;10195;50.868;4.382;2023-10-31T04:34:45;10.60;99.90
20070;DHT22;10195;50.868;4.382;2023-10-31T04:37:10;10.70;99.90
20070;DHT22;10195;50.868;4.382;2023-10-31T04:39:36;10.60;99.90
20070;DHT22;10195;50.868;4.382;2023-10-31T04:42:02;10.70;99.90
20070;DHT22;10195;50.868;4.382;2023-10-31T04:44:27;10.80;99.90
20070;DHT22;10195;50.868;4.382;2023-10-31T04:46:53;10.90;99.90
20070;DHT22;10195;50.868;4.382;2023-10-31T04:49:19;10.90;99.90
20070;DHT22;10195;50.868;4.382;2023-10-31T04:51:45;11.00;99.90
20070;DHT22;10195;50.868;4.382;2023-10-31T04:54:11;11.00;99.90
20070;DHT22;10195;50.868;4.382;2023-10-31T04:56:37;11.10;99.90
20070;DHT22;10195;50.868;4.382;2023-10-31T04:59:02;11.00;99.90
20070;DHT22;10195;50.868;4.382;2023-10-31T05:01:28;11.00;99.90
20070;DHT22;10195;50.868;4.382;2023-10-31T05:03:54;11.10;99.90
20070;DHT22;10195;50.868;4.382;2023-10-31T05:06:20;11.10;99.90
20070;DHT22;10195;50.868;4.382;2023-10-31T05:08:47;11.10;99.90
20070;DHT22;10195;50.868;4.382;2023-10-31T05:11:12;11.20;99.90
20070;DHT22;10195;50.868;4.382;2023-10-31T05:13:39;11.30;99.90
20070;DHT22;10195;50.868;4.382;2023-10-31T05:16:05;11.30;99.90
20070;DHT22;10195;50.868;4.382;2023-10-31T05:18:31;11.40;99.90
20070;DHT22;10195;50.868;4.382;2023-10-31T05:20:57;11.40;99.90
20070;DHT22;10195;50.868;4.382;2023-10-31T05:23:22;11.40;99.90
20070;DHT22;10195;50.868;4.382;2023-10-31T05:25:48;11.40;99.90
20070;DHT22;10195;50.868;4.382;2023-10-31T05:28:13;11.40;99.90
20070;DHT22;10195;50.868;4.382;2023-10-31T05:30:39;11.40;99.90
20070;DHT22;10195;50.868;4.382;2023-10-31T05:33:05;11.40;99.90
20070;DHT22;10195;50.868;4.382;2023-10-31T05:35:30;11.40;99.90
20070;DHT22;10195;50.868;4.382;2023-10-31T05:37:56;11.40;99.90
20070;DHT22;10195;50.868;4.382;2023-10-31T05:40:22;11.50;99.90
20070;DHT22;10195;50.868;4.382;2023-10-31T05:42:50;11.50;99.90
20070;DHT22;10195;50.868;4.382;2023-10-31T05:45:16;11.50;99.90
20070;DHT22;10195;50.868;4.382;2023-10-31T05:47:41;11.50;99.90
20070;DHT22;10195;50.868;4.382;2023-10-31T05:50:07;11.50;99.90
20070;DHT22;10195;50.868;4.382;2023-10-31T05:52:34;11.50;99.90
20070;DHT22;10195;50.868;4.382;2023-10-31T05:54:59;11.50;99.90
20070;DHT22;10195;50.868;4.382;2023-10-31T05:57:25;11.50;99.90
20070;DHT22;10195;50.868;4.382;2023-10-31T05:59:51;11.50;99.90
20070;DHT22;10195;50.868;4.382;2023-10-31T06:02:16;11.50;99.90
20070;DHT22;10195;50.868;4.382;2023-10-31T06:04:42;11.50;99.90
20070;DHT22;10195;50.868;4.382;2023-10-31T06:07:08;11.50;99.90
20070;DHT22;10195;50.868;4.382;2023-10-31T06:09:34;11.50;99.90
20070;DHT22;10195;50.868;4.382;2023-10-31T06:12:00;11.50;99.90
20070;DHT22;10195;50.868;4.382;2023-10-31T06:14:26;11.60;99.90
20070;DHT22;10195;50.868;4.382;2023-10-31T06:16:51;11.60;99.90
20070;DHT22;10195;50.868;4.382;2023-10-31T06:19:17;11.50;99.90
20070;DHT22;10195;50.868;4.382;2023-10-31T06:21:43;11.40;99.90
20070;DHT22;10195;50.868;4.382;2023-10-31T06:24:09;11.40;99.90
20070;DHT22;10195;50.868;4.382;2023-10-31T06:26:35;11.40;99.90
20070;DHT22;10195;50.868;4.382;2023-10-31T06:29:01;11.50;99.90
20070;DHT22;10195;50.868;4.382;2023-10-31T06:31:26;11.50;99.90
20070;DHT22;10195;50.868;4.382;2023-10-31T06:33:52;11.50;99.90
20070;DHT22;10195;50.868;4.382;2023-10-31T06:36:18;11.40;99.90
20070;DHT22;10195;50.868;4.382;2023-10-31T06:38:43;11.40;99.90
20070;DHT22;10195;50.868;4.382;2023-10-31T06:41:09;11.40;99.90
20070;DHT22;10195;50.868;4.382;2023-10-31T06:43:35;11.40;99.90
20070;DHT22;10195;50.868;4.382;2023-10-31T06:46:01;11.20;99.90
20070;DHT22;10195;50.868;4.382;2023-10-31T06:48:28;11.20;99.90
20070;DHT22;10195;50.868;4.382;2023-10-31T06:50:54;11.20;99.90
20070;DHT22;10195;50.868;4.382;2023-10-31T06:53:19;11.20;99.90
20070;DHT22;10195;50.868;4.382;2023-10-31T06:55:45;11.20;99.90
20070;DHT22;10195;50.868;4.382;2023-10-31T06:58:11;11.30;99.90
20070;DHT22;10195;50.868;4.382;2023-10-31T07:00:36;11.30;99.90
20070;DHT22;10195;50.868;4.382;2023-10-31T07:03:03;11.20;99.90
20070;DHT22;10195;50.868;4.382;2023-10-31T07:05:37;11.20;99.90
20070;DHT22;10195;50.868;4.382;2023-10-31T07:08:03;11.20;99.90
20070;DHT22;10195;50.868;4.382;2023-10-31T07:10:29;11.20;99.90
20070;DHT22;10195;50.868;4.382;2023-10-31T07:12:55;11.10;99.90
20070;DHT22;10195;50.868;4.382;2023-10-31T07:15:20;11.20;99.90
20070;DHT22;10195;50.868;4.382;2023-10-31T07:17:47;11.30;99.90
20070;DHT22;10195;50.868;4.382;2023-10-31T07:20:13;11.30;99.90
20070;DHT22;10195;50.868;4.382;2023-10-31T07:22:39;11.20;99.90
20070;DHT22;10195;50.868;4.382;2023-10-31T07:25:06;11.30;99.90
20070;DHT22;10195;50.868;4.382;2023-10-31T07:27:35;11.40;99.90
20070;DHT22;10195;50.868;4.382;2023-10-31T07:30:02;11.40;99.90
20070;DHT22;10195;50.868;4.382;2023-10-31T07:32:29;11.60;99.90
20070;DHT22;10195;50.868;4.382;2023-10-31T07:34:55;11.60;99.90
20070;DHT22;10195;50.868;4.382;2023-10-31T07:37:20;11.60;99.90
20070;DHT22;10195;50.868;4.382;2023-10-31T07:39:46;11.60;99.90
20070;DHT22;10195;50.868;4.382;2023-10-31T07:42:12;11.50;99.90
20070;DHT22;10195;50.868;4.382;2023-10-31T07:44:37;11.50;99.90
20070;DHT22;10195;50.868;4.382;2023-10-31T07:47:03;11.50;99.90
20070;DHT22;10195;50.868;4.382;2023-10-31T07:49:29;11.70;99.90
20070;DHT22;10195;50.868;4.382;2023-10-31T07:51:54;11.90;99.90
20070;DHT22;10195;50.868;4.382;2023-10-31T07:54:20;11.90;99.90
20070;DHT22;10195;50.868;4.382;2023-10-31T07:56:46;11.80;99.90
20070;DHT22;10195;50.868;4.382;2023-10-31T07:59:12;11.90;99.90
20070;DHT22;10195;50.868;4.382;2023-10-31T08:01:37;11.90;99.90
20070;DHT22;10195;50.868;4.382;2023-10-31T08:04:03;11.70;99.90
20070;DHT22;10195;50.868;4.382;2023-10-31T08:06:29;11.80;99.90
20070;DHT22;10195;50.868;4.382;2023-10-31T08:08:54;11.90;99.90
20070;DHT22;10195;50.868;4.382;2023-10-31T08:11:20;12.00;99.90
20070;DHT22;10195;50.868;4.382;2023-10-31T08:13:46;12.00;99.90
20070;DHT22;10195;50.868;4.382;2023-10-31T08:16:20;12.00;99.90
20070;DHT22;10195;50.868;4.382;2023-10-31T08:18:46;11.90;99.90
20070;DHT22;10195;50.868;4.382;2023-10-31T08:21:12;12.00;99.90
20070;DHT22;10195;50.868;4.382;2023-10-31T08:23:38;12.00;99.90
20070;DHT22;10195;50.868;4.382;2023-10-31T08:26:04;12.10;99.90
20070;DHT22;10195;50.868;4.382;2023-10-31T08:28:30;12.20;99.90
20070;DHT22;10195;50.868;4.382;2023-10-31T08:30:57;12.20;99.90
20070;DHT22;10195;50.868;4.382;2023-10-31T08:33:22;12.30;99.90
20070;DHT22;10195;50.868;4.382;2023-10-31T08:35:48;12.30;99.90
20070;DHT22;10195;50.868;4.382;2023-10-31T08:38:14;12.40;99.90
20070;DHT22;10195;50.868;4.382;2023-10-31T08:40:40;12.20;99.90
20070;DHT22;10195;50.868;4.382;2023-10-31T08:43:06;12.20;99.90
20070;DHT22;10195;50.868;4.382;2023-10-31T08:45:32;12.20;99.90
20070;DHT22;10195;50.868;4.382;2023-10-31T08:47:59;12.00;99.90
20070;DHT22;10195;50.868;4.382;2023-10-31T08:50:25;11.90;99.90
20070;DHT22;10195;50.868;4.382;2023-10-31T08:52:50;11.90;99.90
20070;DHT22;10195;50.868;4.382;2023-10-31T08:55:16;11.90;99.90
20070;DHT22;10195;50.868;4.382;2023-10-31T08:57:42;11.90;99.90
20070;DHT22;10195;50.868;4.382;2023-10-31T09:00:08;12.10;99.90
20070;DHT22;10195;50.868;4.382;2023-10-31T09:02:34;12.40;99.90
20070;DHT22;10195;50.868;4.382;2023-10-31T09:04:59;12.70;99.90
20070;DHT22;10195;50.868;4.382;2023-10-31T09:07:25;12.90;99.90
20070;DHT22;10195;50.868;4.382;2023-10-31T09:09:51;13.20;99.90
20070;DHT22;10195;50.868;4.382;2023-10-31T09:12:16;13.40;99.90
20070;DHT22;10195;50.868;4.382;2023-10-31T09:14:42;13.90;99.90
20070;DHT22;10195;50.868;4.382;2023-10-31T09:17:08;14.40;99.90
20070;DHT22;10195;50.868;4.382;2023-10-31T09:19:33;14.60;99.90
20070;DHT22;10195;50.868;4.382;2023-10-31T09:21:59;14.60;99.90
20070;DHT22;10195;50.868;4.382;2023-10-31T09:24:25;14.80;99.90
20070;DHT22;10195;50.868;4.382;2023-10-31T09:26:51;14.80;99.90
20070;DHT22;10195;50.868;4.382;2023-10-31T09:29:16;14.80;99.90
20070;DHT22;10195;50.868;4.382;2023-10-31T09:31:42;14.50;99.90
20070;DHT22;10195;50.868;4.382;2023-10-31T09:34:08;14.40;99.90
20070;DHT22;10195;50.868;4.382;2023-10-31T09:36:34;14.10;99.90
20070;DHT22;10195;50.868;4.382;2023-10-31T09:39:00;13.90;99.90
20070;DHT22;10195;50.868;4.382;2023-10-31T09:41:26;13.90;99.90
20070;DHT22;10195;50.868;4.382;2023-10-31T09:43:53;13.70;99.90
20070;DHT22;10195;50.868;4.382;2023-10-31T09:46:19;13.50;99.90
20070;DHT22;10195;50.868;4.382;2023-10-31T09:48:45;13.40;99.90
20070;DHT22;10195;50.868;4.382;2023-10-31T09:51:12;13.40;99.90
20070;DHT22;10195;50.868;4.382;2023-10-31T09:53:38;13.30;99.90
20070;DHT22;10195;50.868;4.382;2023-10-31T09:56:06;13.00;99.90
20070;DHT22;10195;50.868;4.382;2023-10-31T09:58:32;12.90;99.90
20070;DHT22;10195;50.868;4.382;2023-10-31T10:00:57;12.80;99.90
20070;DHT22;10195;50.868;4.382;2023-10-31T10:03:23;12.70;99.90
20070;DHT22;10195;50.868;4.382;2023-10-31T10:05:49;12.70;99.90
20070;DHT22;10195;50.868;4.382;2023-10-31T10:08:15;12.80;99.90
20070;DHT22;10195;50.868;4.382;2023-10-31T10:10:42;12.90;99.90
20070;DHT22;10195;50.868;4.382;2023-10-31T10:13:08;13.20;99.90
20070;DHT22;10195;50.868;4.382;2023-10-31T10:15:45;13.30;99.90
20070;DHT22;10195;50.868;4.382;2023-10-31T10:18:19;13.50;99.90
20070;DHT22;10195;50.868;4.382;2023-10-31T10:21:00;13.70;99.90
20070;DHT22;10195;50.868;4.382;2023-10-31T10:23:26;13.60;99.90
20070;DHT22;10195;50.868;4.382;2023-10-31T10:25:53;13.40;99.90
20070;DHT22;10195;50.868;4.382;2023-10-31T10:28:19;13.30;99.90
20070;DHT22;10195;50.868;4.382;2023-10-31T10:30:46;13.20;99.90
20070;DHT22;10195;50.868;4.382;2023-10-31T10:33:15;13.10;99.90
20070;DHT22;10195;50.868;4.382;2023-10-31T10:35:42;13.20;99.90
20070;DHT22;10195;50.868;4.382;2023-10-31T10:38:19;13.00;99.90
20070;DHT22;10195;50.868;4.382;2023-10-31T10:40:47;13.10;99.90
20070;DHT22;10195;50.868;4.382;2023-10-31T10:43:24;13.20;99.90
20070;DHT22;10195;50.868;4.382;2023-10-31T10:45:59;13.30;99.90
20070;DHT22;10195;50.868;4.382;2023-10-31T10:48:26;13.30;99.90
20070;DHT22;10195;50.868;4.382;2023-10-31T10:54:00;13.30;99.90
20070;DHT22;10195;50.868;4.382;2023-10-31T10:56:36;13.80;99.90
20070;DHT22;10195;50.868;4.382;2023-10-31T10:59:08;14.10;99.90
20070;DHT22;10195;50.868;4.382;2023-10-31T11:01:38;14.10;99.90
20070;DHT22;10195;50.868;4.382;2023-10-31T11:04:05;14.10;99.90
20070;DHT22;10195;50.868;4.382;2023-10-31T11:06:33;13.90;99.90
20070;DHT22;10195;50.868;4.382;2023-10-31T11:09:00;13.80;99.90
20070;DHT22;10195;50.868;4.382;2023-10-31T11:11:27;13.90;99.90
20070;DHT22;10195;50.868;4.382;2023-10-31T11:13:53;14.10;99.90
20070;DHT22;10195;50.868;4.382;2023-10-31T11:16:39;14.00;99.90
20070;DHT22;10195;50.868;4.382;2023-10-31T11:19:07;14.00;99.90
20070;DHT22;10195;50.868;4.382;2023-10-31T11:21:34;13.90;99.90
20070;DHT22;10195;50.868;4.382;2023-10-31T11:24:00;13.70;99.90
20070;DHT22;10195;50.868;4.382;2023-10-31T11:26:27;13.60;99.90
20070;DHT22;10195;50.868;4.382;2023-10-31T11:29:03;13.40;99.90
20070;DHT22;10195;50.868;4.382;2023-10-31T11:31:30;13.20;99.90
20070;DHT22;10195;50.868;4.382;2023-10-31T11:33:56;13.10;99.90
20070;DHT22;10195;50.868;4.382;2023-10-31T11:36:22;13.00;99.90
20070;DHT22;10195;50.868;4.382;2023-10-31T11:38:48;13.00;99.90
20070;DHT22;10195;50.868;4.382;2023-10-31T11:41:14;13.00;99.90
20070;DHT22;10195;50.868;4.382;2023-10-31T11:46:05;12.90;99.90
20070;DHT22;10195;50.868;4.382;2023-10-31T11:51:12;13.00;99.90
20070;DHT22;10195;50.868;4.382;2023-10-31T11:53:39;13.00;99.90
20070;DHT22;10195;50.868;4.382;2023-10-31T11:56:05;12.90;99.90
20070;DHT22;10195;50.868;4.382;2023-10-31T11:58:31;13.00;99.90
20070;DHT22;10195;50.868;4.382;2023-10-31T12:01:08;12.80;99.90
20070;DHT22;10195;50.868;4.382;2023-10-31T12:03:44;12.70;99.90
20070;DHT22;10195;50.868;4.382;2023-10-31T12:06:14;12.40;99.90
20070;DHT22;10195;50.868;4.382;2023-10-31T12:08:42;12.50;99.90
20070;DHT22;10195;50.868;4.382;2023-10-31T12:11:12;12.70;99.90
20070;DHT22;10195;50.868;4.382;2023-10-31T12:13:40;12.80;99.90
20070;DHT22;10195;50.868;4.382;2023-10-31T12:16:08;12.90;99.90
20070;DHT22;10195;50.868;4.382;2023-10-31T12:18:35;12.70;99.90
20070;DHT22;10195;50.868;4.382;2023-10-31T12:21:01;12.50;99.90
20070;DHT22;10195;50.868;4.382;2023-10-31T12:23:27;12.40;99.90
20070;DHT22;10195;50.868;4.382;2023-10-31T12:25:53;12.40;99.90
20070;DHT22;10195;50.868;4.382;2023-10-31T12:28:20;12.40;99.90
20070;DHT22;10195;50.868;4.382;2023-10-31T12:30:51;12.30;99.90
20070;DHT22;10195;50.868;4.382;2023-10-31T12:33:20;12.40;99.90
20070;DHT22;10195;50.868;4.382;2023-10-31T12:35:47;12.50;99.90
20070;DHT22;10195;50.868;4.382;2023-10-31T12:38:14;12.50;99.90
20070;DHT22;10195;50.868;4.382;2023-10-31T12:40:41;12.40;99.90
20070;DHT22;10195;50.868;4.382;2023-10-31T12:43:08;12.40;99.90
20070;DHT22;10195;50.868;4.382;2023-10-31T12:45:35;12.50;99.90
20070;DHT22;10195;50.868;4.382;2023-10-31T12:48:06;12.80;99.90
20070;DHT22;10195;50.868;4.382;2023-10-31T12:50:33;13.00;99.90
20070;DHT22;10195;50.868;4.382;2023-10-31T12:52:59;13.20;99.90
20070;DHT22;10195;50.868;4.382;2023-10-31T12:55:27;13.00;99.90
20070;DHT22;10195;50.868;4.382;2023-10-31T12:57:54;13.10;99.90
20070;DHT22;10195;50.868;4.382;2023-10-31T13:00:21;13.10;99.90
20070;DHT22;10195;50.868;4.382;2023-10-31T13:02:52;13.00;99.90
20070;DHT22;10195;50.868;4.382;2023-10-31T13:05:25;13.10;99.90
20070;DHT22;10195;50.868;4.382;2023-10-31T13:07:52;13.20;99.90
20070;DHT22;10195;50.868;4.382;2023-10-31T13:10:28;13.10;99.90
20070;DHT22;10195;50.868;4.382;2023-10-31T13:12:55;13.00;99.90
20070;DHT22;10195;50.868;4.382;2023-10-31T13:15:22;12.90;99.90
20070;DHT22;10195;50.868;4.382;2023-10-31T13:17:49;12.90;99.90
20070;DHT22;10195;50.868;4.382;2023-10-31T13:20:17;12.80;99.90
20070;DHT22;10195;50.868;4.382;2023-10-31T13:22:44;12.80;99.90
20070;DHT22;10195;50.868;4.382;2023-10-31T13:25:11;12.90;99.90
20070;DHT22;10195;50.868;4.382;2023-10-31T13:27:38;12.90;99.90
20070;DHT22;10195;50.868;4.382;2023-10-31T13:30:07;12.90;99.90
20070;DHT22;10195;50.868;4.382;2023-10-31T13:32:33;13.00;99.90
20070;DHT22;10195;50.868;4.382;2023-10-31T13:34:59;12.90;99.90
20070;DHT22;10195;50.868;4.382;2023-10-31T13:37:25;13.00;99.90
20070;DHT22;10195;50.868;4.382;2023-10-31T13:39:51;13.10;99.90
20070;DHT22;10195;50.868;4.382;2023-10-31T13:42:17;13.00;99.90
20070;DHT22;10195;50.868;4.382;2023-10-31T13:44:43;12.90;99.90
20070;DHT22;10195;50.868;4.382;2023-10-31T13:47:09;13.00;99.90
20070;DHT22;10195;50.868;4.382;2023-10-31T13:49:35;13.20;99.90
20070;DHT22;10195;50.868;4.382;2023-10-31T13:52:01;13.40;99.90
20070;DHT22;10195;50.868;4.382;2023-10-31T13:54:27;13.40;99.90
20070;DHT22;10195;50.868;4.382;2023-10-31T13:56:53;13.30;99.90
20070;DHT22;10195;50.868;4.382;2023-10-31T13:59:19;13.50;99.90
20070;DHT22;10195;50.868;4.382;2023-10-31T14:01:46;13.70;99.90
20070;DHT22;10195;50.868;4.382;2023-10-31T14:04:12;13.70;99.90
20070;DHT22;10195;50.868;4.382;2023-10-31T14:06:42;13.70;99.90
20070;DHT22;10195;50.868;4.382;2023-10-31T14:09:09;13.80;99.90
20070;DHT22;10195;50.868;4.382;2023-10-31T14:11:35;13.90;99.90
20070;DHT22;10195;50.868;4.382;2023-10-31T14:14:02;13.90;99.90
20070;DHT22;10195;50.868;4.382;2023-10-31T14:16:36;14.00;99.90
20070;DHT22;10195;50.868;4.382;2023-10-31T14:19:02;13.90;99.90
20070;DHT22;10195;50.868;4.382;2023-10-31T14:21:29;13.90;99.90
20070;DHT22;10195;50.868;4.382;2023-10-31T14:23:55;13.80;99.90
20070;DHT22;10195;50.868;4.382;2023-10-31T14:26:21;13.90;99.90
20070;DHT22;10195;50.868;4.382;2023-10-31T14:28:47;13.90;99.90
20070;DHT22;10195;50.868;4.382;2023-10-31T14:31:16;13.80;99.90
20070;DHT22;10195;50.868;4.382;2023-10-31T14:33:42;13.80;99.90
20070;DHT22;10195;50.868;4.382;2023-10-31T14:36:08;13.70;99.90
20070;DHT22;10195;50.868;4.382;2023-10-31T14:38:36;13.80;99.90
20070;DHT22;10195;50.868;4.382;2023-10-31T14:41:02;13.80;99.90
20070;DHT22;10195;50.868;4.382;2023-10-31T14:43:28;13.90;99.90
20070;DHT22;10195;50.868;4.382;2023-10-31T14:45:54;14.00;99.90
20070;DHT22;10195;50.868;4.382;2023-10-31T14:48:21;14.10;99.90
20070;DHT22;10195;50.868;4.382;2023-10-31T14:50:47;14.10;99.90
20070;DHT22;10195;50.868;4.382;2023-10-31T14:53:16;14.00;99.90
20070;DHT22;10195;50.868;4.382;2023-10-31T14:55:42;14.00;99.90
20070;DHT22;10195;50.868;4.382;2023-10-31T14:58:08;13.80;99.90
20070;DHT22;10195;50.868;4.382;2023-10-31T15:00:36;13.70;99.90
20070;DHT22;10195;50.868;4.382;2023-10-31T15:03:03;13.70;99.90
20070;DHT22;10195;50.868;4.382;2023-10-31T15:05:29;13.80;99.90
20070;DHT22;10195;50.868;4.382;2023-10-31T15:07:56;13.70;99.90
20070;DHT22;10195;50.868;4.382;2023-10-31T15:10:23;13.60;99.90
20070;DHT22;10195;50.868;4.382;2023-10-31T15:12:49;13.60;99.90
20070;DHT22;10195;50.868;4.382;2023-10-31T15:15:15;13.60;99.90
20070;DHT22;10195;50.868;4.382;2023-10-31T15:17:41;13.60;99.90
20070;DHT22;10195;50.868;4.382;2023-10-31T15:20:07;13.60;99.90
20070;DHT22;10195;50.868;4.382;2023-10-31T15:22:36;13.60;99.90
20070;DHT22;10195;50.868;4.382;2023-10-31T15:25:02;13.60;99.90
20070;DHT22;10195;50.868;4.382;2023-10-31T15:27:28;13.70;99.90
20070;DHT22;10195;50.868;4.382;2023-10-31T15:29:53;13.60;99.90
20070;DHT22;10195;50.868;4.382;2023-10-31T15:32:19;13.60;99.90
20070;DHT22;10195;50.868;4.382;2023-10-31T15:34:45;13.50;99.90